Terminal Aerodrome Forecast
Issued by NWS Salt Lake City, UT

Home | Current Version | Previous Version | Text Only | Print | Product List | Glossary On
Versions: 1 2 3 4 5 6 7 8 9 10 11 12 13 14 15 16 17 18 19 20 21 22 23 24 25 26 27 28 29 30 31 32 33 34 35 36 37 38 39
000
FTUS45 KSLC 260725 CCA
TAFCDC
TAF COR
KCDC 260725Z 2607/2706 35006KT P6SM VCSH SCT025 BKN060
      TEMPO 2607/2610 BKN025
     FM261000 36012G18KT 5SM -SHRASN BR BKN025 OVC040
     FM261300 01012G18KT P6SM VCSH BKN040
     FM261600 01016G23KT P6SM SCT040
     FM270300 02009KT P6SM FEW040=

USA.gov is the U.S. government's official web portal to all federal, state and local government web resources and services.